Enschede Airport Twente

EHTW · Overijssel, 荷兰

罗盘
风向 的 风向 的 风向 到 风向 060° Enschede Airport Twente 5/23
风: 5 kt, 2 beaufort

5 kt

改变
0 1.000 2.000 3.000 4.000 5.000
OVC 900 ft
METAR EDDG 030250Z AUTO 06005KT 360V130 9999 OVC009 01/M01 Q1023 NOSIG

METAR Enschede Airport Twente - EHTW/ENS

Enschede Airport Twente是,荷兰中的中型机场。 该机场有一条跑道: 5/23. 该领域的国际民航组织标志是EHTW 它的国际航空运输协会代码是ENS.

这份报告是针对2022年12月3日 03:50, 当地时间在Münster Osnabrück Airport进行的。

机场观察

风向为060°,速度为5 kt。 风向在360°和130°之间变化。

可见度为10 km 或者更多。

有乌云密布在900 ft的高度。 破损或更高的上限为900 ft。

温度为1 °C,阵风为-3 °C。 露点为-1 °C,相对湿度为87%。 海平面上的气压为1023 hPa (QNH)。

白天

今天,太阳从08:22升起,在16:22降落。 这适用于Enschede Airport Twente,世界夏令时可能有所不同。 当地时间与世界标准时间之间的时差为+1 小时。 当前,没有夏令时有效。

公司介绍

我们没有关于这个机场的公司信息。

体会

到Vliegles.nl去找飞行课程,跳伞和其他飞行体验。 浏览页面,了解Enschede Airport Twente附近所有可用的活动。 你也可以使用搜索功能来寻找你所在地附近的特定飞行课程、跳伞或其他飞行体验。

跑道

Id 标题 侧风 逆风 侧风 %
5/23 056°-236° 5 kt 7 %

逆风成分最大的方向会被突出显示,并用于横风计算。 这并不一定意味着这个方向在使用。

乌云

900 ft OVC 乌云密布

温度 & 天气

温度 1 °C
露点 -1 °C
相对湿度 87%
风寒 -3 °C
Kp-index 2 (0-9)

白天

日出
08:18 (4:14)
中午
12:19
日落
16:19

小工具

你想在你的网站上有一个关于Enschede Airport Twente的当前航空天气(METAR)的小部件吗?

显示HTML代码

我们和第三方通过cookies跟踪您在我们网站上的互联网行为。如果你继续,我们认为你同意我们的饼干政策